Moxahala, Ohio
Current Conditions -  °F | °C
As of 8:05 AM on Tuesday 21 Oct 2014 (Local Time) from KZZV Reporting Station
Haze Haze  
Wind Chill: 47°   Ceiling: 1400
Heat Index: 49°   Visibility: 1.5mi
Dew Point: 47°   Wind: 5mph
Humidity: 93%   Direction: 230°SW
Pressure: 29.89"   Gusts: NA
Location:  39.66°N, 82.14°W
Report Text: KZZV 211205Z AUTO 23004KT 1 1/2SM BR OVC014 09/08 A2989 RMK AO2 T00940083
Loading
Personal Weather Stations






























Interactive Weather Map
Tropical Storm Tracking
New forecast layout! Learn more

10-Day Weather Forecast

Advertisements
Track Severe Weather on mobile